createdAt,value
2018-07-09T00:04:02.043Z,23.80
2018-07-09T00:06:32.140Z,23.80
2018-07-09T00:09:02.181Z,23.80
2018-07-09T00:11:32.488Z,23.80
2018-07-09T00:14:02.619Z,23.80
2018-07-09T00:16:32.814Z,23.80
2018-07-09T00:19:02.901Z,23.90
2018-07-09T00:21:32.984Z,24.00
2018-07-09T00:24:03.037Z,24.10
2018-07-09T00:26:33.106Z,24.10
2018-07-09T00:29:03.203Z,24.10
2018-07-09T00:31:33.280Z,24.20
2018-07-09T00:34:03.244Z,24.30
2018-07-09T00:36:33.123Z,24.40
2018-07-09T00:39:04.377Z,24.40
2018-07-09T00:41:35.120Z,24.50
2018-07-09T00:44:05.054Z,24.80
2018-07-09T00:46:34.890Z,25.20
2018-07-09T00:49:05.039Z,25.30
2018-07-09T00:51:34.992Z,25.40
2018-07-09T00:54:05.136Z,25.30
2018-07-09T00:56:35.243Z,25.30
2018-07-09T00:59:05.228Z,25.20
2018-07-09T01:01:35.439Z,25.20
2018-07-09T01:04:05.444Z,25.20
2018-07-09T01:06:35.566Z,25.20
2018-07-09T01:09:06.210Z,25.20
2018-07-09T01:11:44.590Z,25.20
2018-07-09T01:14:14.447Z,25.10
2018-07-09T01:16:44.384Z,25.00
2018-07-09T01:19:14.467Z,25.00
2018-07-09T01:21:44.368Z,25.00
2018-07-09T01:24:14.517Z,25.00
2018-07-09T01:26:44.480Z,24.90
2018-07-09T01:29:14.701Z,24.90
2018-07-09T01:34:13.988Z,24.90
2018-07-09T01:36:43.925Z,24.90
2018-07-09T01:39:14.184Z,24.80
2018-07-09T01:41:44.142Z,24.80
2018-07-09T01:44:14.026Z,25.00
2018-07-09T01:46:44.038Z,25.00
2018-07-09T01:49:13.938Z,25.00
2018-07-09T01:51:43.975Z,24.90
2018-07-09T01:54:13.940Z,24.80
2018-07-09T01:56:43.901Z,24.70
2018-07-09T01:59:13.818Z,24.70
2018-07-09T02:01:43.883Z,24.70
2018-07-09T02:04:14.012Z,24.70
2018-07-09T02:06:44.060Z,24.80
2018-07-09T02:09:14.053Z,25.10
2018-07-09T02:11:44.005Z,25.30
2018-07-09T02:14:14.143Z,25.30
2018-07-09T02:16:44.008Z,25.30
2018-07-09T02:19:14.059Z,25.20
2018-07-09T02:21:44.108Z,25.10
2018-07-09T02:24:14.104Z,25.00
2018-07-09T02:26:44.133Z,24.80
2018-07-09T02:29:14.189Z,24.70
2018-07-09T02:31:44.204Z,24.50
2018-07-09T02:34:14.332Z,24.40
2018-07-09T02:36:44.247Z,24.40
2018-07-09T02:39:14.098Z,24.30
2018-07-09T02:41:44.116Z,24.10
2018-07-09T02:44:14.133Z,24.10
2018-07-09T02:46:43.974Z,24.00
2018-07-09T02:49:13.866Z,24.00
2018-07-09T02:51:44.185Z,24.00
2018-07-09T02:54:14.346Z,24.00
2018-07-09T02:56:44.308Z,24.10
2018-07-09T02:59:14.203Z,24.00
2018-07-09T03:01:44.198Z,23.90
2018-07-09T03:04:14.266Z,23.80
2018-07-09T03:06:44.274Z,23.80
2018-07-09T03:09:14.541Z,23.80
2018-07-09T03:11:44.630Z,23.80
2018-07-09T03:14:14.699Z,23.80
2018-07-09T03:16:44.762Z,23.80
2018-07-09T03:19:14.785Z,23.70
2018-07-09T03:21:44.712Z,23.60
2018-07-09T03:24:14.892Z,23.60
2018-07-09T03:26:44.943Z,23.60
2018-07-09T03:29:14.943Z,23.50
2018-07-09T03:31:45.033Z,23.60
2018-07-09T03:34:15.115Z,23.70
2018-07-09T03:36:45.207Z,23.70
2018-07-09T03:39:15.731Z,23.80
2018-07-09T03:41:45.651Z,23.80
2018-07-09T03:44:15.573Z,23.80
2018-07-09T03:46:45.502Z,23.70
2018-07-09T03:49:15.498Z,23.60
2018-07-09T03:51:45.492Z,23.50
2018-07-09T03:54:16.078Z,23.50
2018-07-09T03:56:46.003Z,23.50
2018-07-09T03:59:16.081Z,23.50
2018-07-09T04:01:46.060Z,23.40
2018-07-09T04:04:23.503Z,23.40
2018-07-09T04:06:53.506Z,23.30
2018-07-09T04:09:23.711Z,23.30
2018-07-09T04:11:53.743Z,23.20
2018-07-09T04:14:23.790Z,23.20
2018-07-09T04:16:53.724Z,23.20
2018-07-09T04:19:23.783Z,23.20
2018-07-09T04:21:54.388Z,23.20
2018-07-09T04:24:24.312Z,23.20
2018-07-09T04:26:54.573Z,23.20
2018-07-09T04:29:24.515Z,23.30
2018-07-09T04:31:54.874Z,23.40
2018-07-09T04:34:24.915Z,23.50
2018-07-09T04:36:55.083Z,23.50
2018-07-09T04:39:25.009Z,23.80
2018-07-09T04:41:55.044Z,23.80
2018-07-09T04:44:25.007Z,23.80
2018-07-09T04:46:54.943Z,23.80
2018-07-09T04:49:24.849Z,23.90
2018-07-09T04:51:55.194Z,23.90
2018-07-09T04:54:25.146Z,23.90
2018-07-09T04:56:55.127Z,24.00
2018-07-09T04:59:25.509Z,24.10
2018-07-09T05:01:55.672Z,24.20
2018-07-09T05:04:27.120Z,24.40
2018-07-09T05:06:57.322Z,24.50
2018-07-09T05:09:27.302Z,24.70
2018-07-09T05:11:58.342Z,24.80
2018-07-09T05:14:28.696Z,25.00
2018-07-09T05:16:58.771Z,25.20
2018-07-09T05:19:29.632Z,25.30
2018-07-09T05:21:59.735Z,25.30
2018-07-09T05:24:29.699Z,25.40
2018-07-09T05:26:59.856Z,25.50
2018-07-09T05:29:29.802Z,25.60
2018-07-09T05:31:59.830Z,25.60
2018-07-09T05:34:29.802Z,25.60
2018-07-09T05:36:59.816Z,25.70
2018-07-09T05:41:59.378Z,25.90
2018-07-09T05:44:30.334Z,26.10
2018-07-09T05:47:04.337Z,26.20
2018-07-09T05:49:35.076Z,26.30
2018-07-09T05:52:05.097Z,26.50
2018-07-09T05:54:35.173Z,26.50
2018-07-09T05:57:05.197Z,26.60
2018-07-09T05:59:35.346Z,26.60
2018-07-09T06:02:05.383Z,26.70
2018-07-09T06:04:35.241Z,26.80
2018-07-09T06:07:05.311Z,26.80
2018-07-09T06:09:36.099Z,26.80
2018-07-09T06:12:06.375Z,26.90
2018-07-09T06:14:36.842Z,26.80
2018-07-09T06:17:07.535Z,26.90
2018-07-09T06:19:37.662Z,27.00
2018-07-09T06:22:07.892Z,27.10
2018-07-09T06:24:37.993Z,27.00
2018-07-09T06:27:08.093Z,27.20
2018-07-09T06:29:38.433Z,27.40
2018-07-09T06:32:08.936Z,27.40
2018-07-09T06:34:39.952Z,27.60
2018-07-09T06:37:10.411Z,27.70
2018-07-09T06:39:40.585Z,27.80
2018-07-09T06:44:40.032Z,28.10
2018-07-09T06:47:10.120Z,28.00
2018-07-09T06:49:40.130Z,28.10
2018-07-09T06:52:10.480Z,28.20
2018-07-09T06:54:40.586Z,28.30
2018-07-09T06:57:10.778Z,28.50
2018-07-09T07:14:00.744Z,28.70
2018-07-09T07:16:31.001Z,28.90
2018-07-09T07:19:01.077Z,29.00
2018-07-09T07:21:31.223Z,29.00
2018-07-09T07:24:01.257Z,29.20
2018-07-09T07:26:31.187Z,29.10
2018-07-09T07:29:01.410Z,29.20
2018-07-09T07:31:31.551Z,29.20
2018-07-09T07:34:02.014Z,29.00
2018-07-09T07:36:32.071Z,28.90
2018-07-09T07:39:02.126Z,28.60
2018-07-09T07:41:32.328Z,28.30
2018-07-09T07:44:02.695Z,28.20
2018-07-09T07:46:32.918Z,28.00
2018-07-09T07:49:02.858Z,27.80
2018-07-09T07:51:32.760Z,27.80
2018-07-09T07:54:02.777Z,28.10
2018-07-09T07:56:32.757Z,28.60
2018-07-09T07:59:03.236Z,28.90
2018-07-09T08:04:02.654Z,29.10
2018-07-09T08:06:32.564Z,29.30
2018-07-09T08:09:02.586Z,29.50
2018-07-09T08:11:47.688Z,29.90
2018-07-09T08:14:02.793Z,30.00
2018-07-09T08:16:34.303Z,30.00
2018-07-09T08:19:04.425Z,30.20
2018-07-09T08:21:34.554Z,30.40
2018-07-09T08:24:04.934Z,30.30
2018-07-09T08:26:35.508Z,30.00
2018-07-09T08:32:40.806Z,29.90
2018-07-09T08:35:11.543Z,30.40
2018-07-09T08:37:42.928Z,30.60
2018-07-09T08:40:13.437Z,30.50
2018-07-09T08:42:43.907Z,30.00
2018-07-09T08:45:14.558Z,29.70
2018-07-09T08:47:44.754Z,29.70
2018-07-09T08:50:14.718Z,29.70
2018-07-09T08:52:45.661Z,29.50
2018-07-09T08:55:15.893Z,29.20
2018-07-09T08:57:46.426Z,29.10
2018-07-09T09:00:20.308Z,28.90
2018-07-09T09:02:51.037Z,28.90
2018-07-09T09:10:20.908Z,30.00
2018-07-09T09:12:51.840Z,30.20
2018-07-09T09:15:31.329Z,30.30
2018-07-09T09:18:02.090Z,30.50
2018-07-09T09:20:32.423Z,30.60
2018-07-09T09:23:03.047Z,31.20
2018-07-09T09:25:34.007Z,31.30
2018-07-09T09:30:42.393Z,31.40
2018-07-09T09:33:20.591Z,31.60
2018-07-09T09:35:51.253Z,31.30
2018-07-09T09:38:21.662Z,31.20
2018-07-09T09:40:52.015Z,31.10
2018-07-09T09:43:23.289Z,31.30
2018-07-09T09:45:53.996Z,31.20
2018-07-09T09:48:24.248Z,31.20
2018-07-09T09:50:54.551Z,31.30
2018-07-09T09:53:25.044Z,31.40
2018-07-09T09:55:55.685Z,32.10
2018-07-09T09:58:26.009Z,31.70
2018-07-09T10:00:56.728Z,31.20
2018-07-09T10:03:27.192Z,30.90
2018-07-09T10:05:57.772Z,31.00
2018-07-09T10:08:28.623Z,31.00
2018-07-09T10:11:05.047Z,30.90
2018-07-09T10:13:35.519Z,31.00
2018-07-09T10:16:06.165Z,30.90
2018-07-09T10:18:36.486Z,31.80
2018-07-09T10:21:07.469Z,33.00
2018-07-09T10:23:37.925Z,33.70
2018-07-09T10:26:08.072Z,33.50
2018-07-09T10:28:38.016Z,33.90
2018-07-09T10:31:07.890Z,34.00
2018-07-09T10:33:37.876Z,33.60
2018-07-09T10:36:09.168Z,33.40
2018-07-09T10:38:39.342Z,33.40
2018-07-09T10:41:09.393Z,33.10
2018-07-09T10:43:40.218Z,32.80
2018-07-09T10:46:11.821Z,32.30
2018-07-09T10:48:42.329Z,32.30
2018-07-09T10:51:12.649Z,32.40
2018-07-09T10:53:42.984Z,32.70
2018-07-09T10:56:13.758Z,32.60
2018-07-09T10:58:44.582Z,32.60
2018-07-09T11:01:16.686Z,32.70
2018-07-09T11:03:46.871Z,32.80
2018-07-09T11:06:17.035Z,32.70
2018-07-09T11:08:47.054Z,32.30
2018-07-09T11:11:17.438Z,32.60
2018-07-09T11:13:47.464Z,32.90
2018-07-09T11:16:17.602Z,33.10
2018-07-09T11:18:48.024Z,33.50
2018-07-09T11:21:18.047Z,33.40
2018-07-09T11:23:48.075Z,33.40
2018-07-09T11:26:18.156Z,33.40
2018-07-09T11:28:50.477Z,33.10
2018-07-09T11:31:22.134Z,32.80
2018-07-09T11:33:53.428Z,32.80
2018-07-09T11:36:23.610Z,32.50
2018-07-09T11:38:55.427Z,32.40
2018-07-09T11:41:25.728Z,32.30
2018-07-09T11:43:55.972Z,32.20
2018-07-09T11:46:26.137Z,31.90
2018-07-09T11:48:56.215Z,31.80
2018-07-09T11:51:26.446Z,31.40
2018-07-09T11:53:56.570Z,31.40
2018-07-09T11:56:26.578Z,31.70
2018-07-09T11:58:56.675Z,31.80
2018-07-09T12:01:26.672Z,31.80
2018-07-09T12:03:56.690Z,31.90
2018-07-09T12:06:26.776Z,32.00
2018-07-09T12:08:56.733Z,32.00
2018-07-09T12:11:26.750Z,32.00
2018-07-09T12:13:56.925Z,31.90
2018-07-09T12:16:27.003Z,32.00
2018-07-09T12:18:56.950Z,32.10
2018-07-09T12:21:27.017Z,32.10
2018-07-09T12:23:56.958Z,32.20
2018-07-09T12:26:27.108Z,32.40
2018-07-09T12:28:57.163Z,32.60
2018-07-09T12:31:27.252Z,32.60
2018-07-09T12:33:57.261Z,32.50
2018-07-09T12:36:27.291Z,32.70
2018-07-09T12:38:57.508Z,32.90
2018-07-09T12:41:27.618Z,33.10
2018-07-09T12:43:57.941Z,33.40
2018-07-09T12:46:30.317Z,33.50
2018-07-09T12:49:01.508Z,33.70
2018-07-09T12:51:31.858Z,34.00
2018-07-09T12:54:01.962Z,34.10
2018-07-09T12:56:31.963Z,33.80
2018-07-09T12:59:01.949Z,33.80
2018-07-09T13:01:32.395Z,33.90
2018-07-09T13:04:02.677Z,34.20
2018-07-09T13:06:32.659Z,34.00
2018-07-09T13:09:02.780Z,34.70
2018-07-09T13:11:32.858Z,34.90
2018-07-09T13:14:04.337Z,35.00
2018-07-09T13:16:34.371Z,34.70
2018-07-09T13:19:04.566Z,34.80
2018-07-09T13:21:34.520Z,34.80
2018-07-09T13:24:04.518Z,35.10
2018-07-09T13:26:34.551Z,34.90
2018-07-09T13:29:04.589Z,35.00
2018-07-09T13:34:03.979Z,34.60
2018-07-09T13:36:34.142Z,34.40
2018-07-09T13:39:05.262Z,34.30
2018-07-09T13:41:35.450Z,34.10
2018-07-09T13:44:05.595Z,33.90
2018-07-09T13:46:35.758Z,33.30
2018-07-09T13:49:05.784Z,32.90
2018-07-09T13:51:36.051Z,33.00
2018-07-09T13:54:06.206Z,32.90
2018-07-09T13:56:36.489Z,33.00
2018-07-09T13:59:06.752Z,33.20
2018-07-09T14:01:36.842Z,33.00
2018-07-09T14:04:07.059Z,33.20
